Terminal Aerodrome Forecast
Issued by NWS

Home | Current Version | Previous Version | Text Only | Print | Product List | Glossary On
Versions: 1 2 3 4 5 6 7 8 9 10 11 12 13 14 15 16 17 18 19 20 21 22 23 24 25 26 27
000
FTUS46 KMFR 031000 AAA
TAFOTH
TAF AMD
KOTH 031000Z 0310/0406 36010KT 2SM BR OVC002
     FM031200 VRB03KT 1SM BR VCFG OVC002
     FM031800 34011KT P6SM FEW004
     FM031900 35019G25KT P6SM SKC
     FM040400 35011KT P6SM SKC=

USA.gov is the U.S. government's official web portal to all federal, state and local government web resources and services.